EC7A LEMZ-LEMZ
Flight info
| Callsign | EC7A |
|---|---|
| Flight time | N/A |
| Altitude | 4000 |
| Route | LECT |
| Aircraft | COL4/L-SDGRY/S |
Departure
| Time | 2026-04-19 15:54 |
|---|---|
| Airport | Aeródromo Mazaricos (LEMZ) |
Arrival
| Time | N/A |
|---|---|
| Airport | Aeródromo Mazaricos (LEMZ) |
| Time | Latitude | Longitude | Altitude | Speed | Heading |
|---|---|---|---|---|---|
| 2026-04-19 15:50 | 42.98365 | -9.00658 | 946 ft | 0 kts | 59° |
| 2026-04-19 15:52 | 42.98366 | -9.00655 | 946 ft | 2 kts | 61° |
| 2026-04-19 15:52 | 42.98374 | -9.00637 | 946 ft | 2 kts | 46° |
| 2026-04-19 15:53 | 42.98401 | -9.00656 | 944 ft | 6 kts | 316° |
| 2026-04-19 15:53 | 42.98436 | -9.00625 | 943 ft | 7 kts | 15° |
| 2026-04-19 15:53 | 42.98501 | -9.00664 | 942 ft | 13 kts | 332° |
| 2026-04-19 15:53 | 42.98534 | -9.00686 | 943 ft | 0 kts | 150° |
| 2026-04-19 15:54 | 42.98394 | -9.00596 | 944 ft | 52 kts | 157° |
| 2026-04-19 15:54 | 42.97950 | -9.00306 | 1046 ft | 86 kts | 155° |
| 2026-04-19 15:54 | 42.97340 | -9.00035 | 1397 ft | 100 kts | 187° |
| 2026-04-19 15:54 | 42.96765 | -9.00719 | 1642 ft | 120 kts | 237° |
| 2026-04-19 15:55 | 42.96533 | -9.01859 | 1955 ft | 135 kts | 259° |
| 2026-04-19 15:55 | 42.96411 | -9.03257 | 2050 ft | 154 kts | 265° |
| 2026-04-19 15:55 | 42.96475 | -9.04673 | 2268 ft | 140 kts | 268° |
| 2026-04-19 15:55 | 42.96503 | -9.05922 | 2491 ft | 128 kts | 266° |
| 2026-04-19 15:56 | 42.96569 | -9.07099 | 2685 ft | 126 kts | 268° |
| 2026-04-19 15:56 | 42.96586 | -9.08322 | 2695 ft | 130 kts | 262° |
| 2026-04-19 15:56 | 42.96488 | -9.09584 | 2704 ft | 138 kts | 259° |
| 2026-04-19 15:56 | 42.96306 | -9.10859 | 2644 ft | 138 kts | 252° |
| 2026-04-19 15:57 | 42.96056 | -9.12159 | 2521 ft | 144 kts | 251° |
| 2026-04-19 15:57 | 42.95759 | -9.13554 | 2449 ft | 162 kts | 244° |
| 2026-04-19 15:57 | 42.95127 | -9.14873 | 2405 ft | 173 kts | 239° |
| 2026-04-19 15:57 | 42.94731 | -9.16515 | 2224 ft | 184 kts | 250° |
| 2026-04-19 15:58 | 42.94210 | -9.18081 | 1956 ft | 184 kts | 238° |
| 2026-04-19 15:58 | 42.93606 | -9.19611 | 1454 ft | 184 kts | 239° |
| 2026-04-19 15:58 | 42.92911 | -9.21061 | 1125 ft | 180 kts | 233° |
| 2026-04-19 15:58 | 42.92138 | -9.22278 | 1222 ft | 175 kts | 220° |
| 2026-04-19 15:59 | 42.91301 | -9.23490 | 1175 ft | 179 kts | 230° |
| 2026-04-19 15:59 | 42.90533 | -9.24793 | 1322 ft | 169 kts | 225° |
| 2026-04-19 15:59 | 42.89540 | -9.25788 | 695 ft | 189 kts | 213° |
| 2026-04-19 15:59 | 42.88748 | -9.27238 | 756 ft | 178 kts | 236° |
| 2026-04-19 16:00 | 42.87948 | -9.27379 | 1270 ft | 158 kts | 92° |
| 2026-04-19 16:00 | 42.88932 | -9.27057 | 1221 ft | 181 kts | 343° |
| 2026-04-19 16:00 | 42.90255 | -9.27413 | 762 ft | 205 kts | 353° |
| 2026-04-19 16:00 | 42.91568 | -9.28094 | 593 ft | 204 kts | 322° |
| 2026-04-19 16:01 | 42.92554 | -9.29347 | 796 ft | 186 kts | 328° |
| 2026-04-19 16:01 | 42.93696 | -9.28776 | 627 ft | 192 kts | 28° |
| 2026-04-19 16:01 | 42.95000 | -9.28084 | 310 ft | 200 kts | 26° |
| 2026-04-19 16:01 | 42.96010 | -9.27117 | 1089 ft | 146 kts | 41° |
| 2026-04-19 16:02 | 42.97073 | -9.26530 | 753 ft | 189 kts | 22° |
| 2026-04-19 16:02 | 42.98295 | -9.25932 | 807 ft | 191 kts | 9° |
| 2026-04-19 16:02 | 42.99592 | -9.25893 | 1036 ft | 183 kts | 353° |
| 2026-04-19 16:02 | 43.00862 | -9.25739 | 1172 ft | 186 kts | 10° |
| 2026-04-19 16:03 | 43.02084 | -9.25405 | 1283 ft | 167 kts | 26° |
| 2026-04-19 16:03 | 43.03039 | -9.24704 | 1421 ft | 148 kts | 27° |
| 2026-04-19 16:03 | 43.03923 | -9.24064 | 1555 ft | 141 kts | 29° |
| 2026-04-19 16:03 | 43.04771 | -9.23454 | 1696 ft | 135 kts | 28° |
| 2026-04-19 16:04 | 43.05595 | -9.22853 | 1834 ft | 132 kts | 27° |
| 2026-04-19 16:04 | 43.06402 | -9.22276 | 1965 ft | 131 kts | 28° |
| 2026-04-19 16:04 | 43.07209 | -9.21710 | 2094 ft | 129 kts | 28° |
| 2026-04-19 16:04 | 43.08012 | -9.21081 | 2355 ft | 145 kts | 31° |
| 2026-04-19 16:05 | 43.08959 | -9.20387 | 2631 ft | 162 kts | 27° |
| 2026-04-19 16:05 | 43.09985 | -9.19635 | 2907 ft | 171 kts | 29° |
| 2026-04-19 16:05 | 43.11069 | -9.18814 | 3002 ft | 186 kts | 29° |
| 2026-04-19 16:05 | 43.12243 | -9.17932 | 3008 ft | 198 kts | 29° |
| 2026-04-19 16:06 | 43.13472 | -9.17012 | 3007 ft | 204 kts | 28° |
| 2026-04-19 16:06 | 43.14718 | -9.16059 | 2990 ft | 204 kts | 34° |
| 2026-04-19 16:06 | 43.15308 | -9.14369 | 2915 ft | 176 kts | 107° |
| 2026-04-19 16:06 | 43.15386 | -9.14031 | 4050 ft | 19 kts | 179° |
| 2026-04-19 16:07 | 43.14438 | -9.13393 | 3197 ft | 177 kts | 156° |
| 2026-04-19 16:07 | 43.13954 | -9.11917 | 3433 ft | 185 kts | 76° |
| 2026-04-19 16:07 | 43.14670 | -9.10479 | 3679 ft | 195 kts | 46° |
| 2026-04-19 16:07 | 43.15323 | -9.08861 | 3538 ft | 200 kts | 86° |
| 2026-04-19 16:08 | 43.15095 | -9.06991 | 3398 ft | 201 kts | 115° |
| 2026-04-19 16:08 | 43.14650 | -9.05166 | 3268 ft | 205 kts | 104° |
| 2026-04-19 16:08 | 43.14394 | -9.03225 | 3112 ft | 207 kts | 103° |
| 2026-04-19 16:08 | 43.14158 | -9.01282 | 3001 ft | 205 kts | 102° |
| 2026-04-19 16:09 | 43.13930 | -8.99386 | 2993 ft | 204 kts | 103° |
| 2026-04-19 16:09 | 43.13701 | -8.97490 | 2999 ft | 200 kts | 103° |
| 2026-04-19 16:09 | 43.13456 | -8.95595 | 2992 ft | 203 kts | 102° |
| 2026-04-19 16:09 | 43.13228 | -8.93697 | 2989 ft | 201 kts | 102° |
| 2026-04-19 16:10 | 43.12984 | -8.91824 | 2997 ft | 200 kts | 102° |
| 2026-04-19 16:10 | 43.12754 | -8.89945 | 2987 ft | 200 kts | 102° |
| 2026-04-19 16:10 | 43.12521 | -8.88092 | 2988 ft | 193 kts | 102° |
| 2026-04-19 16:10 | 43.12313 | -8.86313 | 2986 ft | 187 kts | 103° |
| 2026-04-19 16:11 | 43.12109 | -8.84605 | 2981 ft | 181 kts | 103° |
| 2026-04-19 16:11 | 43.11898 | -8.82934 | 2995 ft | 177 kts | 102° |
| 2026-04-19 16:11 | 43.11682 | -8.81261 | 2984 ft | 180 kts | 103° |
| 2026-04-19 16:11 | 43.11433 | -8.79572 | 2817 ft | 182 kts | 108° |
| 2026-04-19 16:12 | 43.10989 | -8.77909 | 2196 ft | 193 kts | 121° |
| 2026-04-19 16:12 | 43.10187 | -8.76845 | 2083 ft | 117 kts | 128° |
| 2026-04-19 16:12 | 43.10444 | -8.75954 | 1964 ft | 116 kts | 45° |
| 2026-04-19 16:12 | 43.11140 | -8.75481 | 2038 ft | 104 kts | 7° |
| 2026-04-19 16:13 | 43.11705 | -8.75046 | 2120 ft | 97 kts | 109° |
| 2026-04-19 16:13 | 43.11141 | -8.74492 | 1858 ft | 112 kts | 186° |
| 2026-04-19 16:13 | 43.10686 | -8.75194 | 1507 ft | 99 kts | 244° |
| 2026-04-19 16:13 | 43.10368 | -8.75911 | 1247 ft | 81 kts | 238° |
| 2026-04-19 16:14 | 43.10211 | -8.76262 | 1211 ft | 1 kts | 246° |
| 2026-04-19 16:14 | 43.10218 | -8.76263 | 1211 ft | 6 kts | 43° |
| 2026-04-19 16:14 | 43.10254 | -8.76199 | 1211 ft | 8 kts | 54° |
| 2026-04-19 16:14 | 43.10288 | -8.76124 | 1211 ft | 10 kts | 54° |
| 2026-04-19 16:15 | 43.10332 | -8.76036 | 1213 ft | 12 kts | 56° |
| 2026-04-19 16:15 | 43.10348 | -8.75987 | 1211 ft | 0 kts | 141° |
| 2026-04-19 16:18 | 43.10348 | -8.75986 | 1210 ft | 2 kts | 141° |
| 2026-04-19 16:18 | 43.10328 | -8.75988 | 1212 ft | 10 kts | 244° |
| 2026-04-19 16:18 | 43.10201 | -8.76271 | 1211 ft | 57 kts | 238° |
| 2026-04-19 16:19 | 43.09943 | -8.76786 | 1266 ft | 81 kts | 230° |
| 2026-04-19 16:19 | 43.09487 | -8.77476 | 1407 ft | 115 kts | 220° |
| 2026-04-19 16:19 | 43.08717 | -8.78002 | 1676 ft | 132 kts | 185° |
| 2026-04-19 16:19 | 43.08292 | -8.77042 | 2023 ft | 151 kts | 68° |
| 2026-04-19 16:20 | 43.09270 | -8.76541 | 1974 ft | 179 kts | 344° |
| 2026-04-19 16:20 | 43.10502 | -8.76533 | 2276 ft | 176 kts | 3° |
| 2026-04-19 16:20 | 43.11770 | -8.76469 | 2309 ft | 191 kts | 354° |
| 2026-04-19 16:20 | 43.12810 | -8.75895 | 2531 ft | 143 kts | 74° |
| 2026-04-19 16:21 | 43.12396 | -8.75057 | 2284 ft | 115 kts | 179° |
| 2026-04-19 16:21 | 43.11610 | -8.75621 | 1400 ft | 125 kts | 212° |
| 2026-04-19 16:21 | 43.10973 | -8.76126 | 1253 ft | 82 kts | 210° |
| 2026-04-19 16:21 | 43.10745 | -8.76311 | 1230 ft | 11 kts | 212° |
| 2026-04-19 16:22 | 43.10635 | -8.76402 | 1220 ft | 26 kts | 211° |
| 2026-04-19 16:22 | 43.10517 | -8.76495 | 1217 ft | 0 kts | 185° |
| 2026-04-19 16:22 | 43.10509 | -8.76507 | 1217 ft | 0 kts | 180° |
| 2026-04-19 16:22 | 43.10508 | -8.76507 | 1217 ft | 1 kts | 214° |
| 2026-04-19 16:23 | 43.10440 | -8.76564 | 1215 ft | 32 kts | 214° |
| 2026-04-19 16:23 | 43.10324 | -8.76652 | 1214 ft | 0 kts | 197° |
| 2026-04-19 16:23 | 43.10228 | -8.76735 | 1223 ft | 20 kts | 207° |
| 2026-04-19 16:23 | 43.09953 | -8.76967 | 1217 ft | 67 kts | 207° |
| 2026-04-19 16:24 | 43.09669 | -8.77251 | 1258 ft | 21 kts | 327° |
| 2026-04-19 16:24 | 43.09758 | -8.77362 | 1382 ft | 61 kts | 30° |
| 2026-04-19 16:24 | 43.09913 | -8.76853 | 1542 ft | 116 kts | 55° |
| 2026-04-19 16:24 | 43.10546 | -8.75866 | 1531 ft | 153 kts | 33° |
| 2026-04-19 16:25 | 43.11611 | -8.75541 | 1669 ft | 164 kts | 359° |
| 2026-04-19 16:25 | 43.12767 | -8.75532 | 1807 ft | 164 kts | 359° |
| 2026-04-19 16:25 | 43.13834 | -8.75517 | 1959 ft | 145 kts | 358° |
| 2026-04-19 16:25 | 43.14851 | -8.75459 | 2095 ft | 148 kts | 356° |
| 2026-04-19 16:26 | 43.15879 | -8.75419 | 2238 ft | 148 kts | 359° |
| 2026-04-19 16:26 | 43.16891 | -8.75400 | 2386 ft | 144 kts | 356° |
| 2026-04-19 16:26 | 43.17895 | -8.75315 | 2539 ft | 148 kts | 359° |
| 2026-04-19 16:26 | 43.18934 | -8.75235 | 2689 ft | 152 kts | 0° |
| 2026-04-19 16:27 | 43.20043 | -8.75023 | 2554 ft | 177 kts | 24° |
| 2026-04-19 16:27 | 43.21112 | -8.73969 | 2432 ft | 197 kts | 33° |
| 2026-04-19 16:27 | 43.22342 | -8.73078 | 2262 ft | 206 kts | 22° |
| 2026-04-19 16:27 | 43.23706 | -8.72318 | 2033 ft | 214 kts | 21° |
| 2026-04-19 16:28 | 43.25075 | -8.71552 | 2027 ft | 209 kts | 19° |
| 2026-04-19 16:28 | 43.26472 | -8.71231 | 1923 ft | 204 kts | 359° |
| 2026-04-19 16:28 | 43.27875 | -8.71113 | 1737 ft | 204 kts | 12° |
| 2026-04-19 16:28 | 43.29152 | -8.70274 | 1541 ft | 211 kts | 45° |
| 2026-04-19 16:29 | 43.29698 | -8.68502 | 1560 ft | 199 kts | 77° |
| 2026-04-19 16:29 | 43.30094 | -8.66664 | 1398 ft | 204 kts | 70° |
| 2026-04-19 16:29 | 43.30533 | -8.64834 | 1382 ft | 200 kts | 72° |
| 2026-04-19 16:29 | 43.30900 | -8.63021 | 1528 ft | 192 kts | 75° |
| 2026-04-19 16:30 | 43.31196 | -8.61357 | 2026 ft | 170 kts | 76° |
| 2026-04-19 16:30 | 43.31892 | -8.59834 | 1355 ft | 209 kts | 54° |
| 2026-04-19 16:30 | 43.32067 | -8.57917 | 906 ft | 215 kts | 113° |
| 2026-04-19 16:30 | 43.31340 | -8.56160 | 682 ft | 203 kts | 104° |
| 2026-04-19 16:31 | 43.31344 | -8.54377 | 782 ft | 191 kts | 92° |
| 2026-04-19 16:31 | 43.31896 | -8.52815 | 504 ft | 195 kts | 31° |
| 2026-04-19 16:31 | 43.33177 | -8.52339 | 360 ft | 187 kts | 17° |
| 2026-04-19 16:31 | 43.34040 | -8.51178 | 636 ft | 166 kts | 54° |
| 2026-04-19 16:32 | 43.34863 | -8.50003 | 672 ft | 167 kts | 54° |
| 2026-04-19 16:32 | 43.35263 | -8.48514 | 854 ft | 173 kts | 63° |
| 2026-04-19 16:32 | 43.35898 | -8.47045 | 801 ft | 184 kts | 56° |
| 2026-04-19 16:32 | 43.36588 | -8.45570 | 813 ft | 184 kts | 56° |
| 2026-04-19 16:33 | 43.37258 | -8.43986 | 604 ft | 195 kts | 61° |
| 2026-04-19 16:33 | 43.37916 | -8.42391 | 404 ft | 195 kts | 59° |
| 2026-04-19 16:33 | 43.38532 | -8.40749 | 226 ft | 194 kts | 61° |
| 2026-04-19 16:33 | 43.39121 | -8.39135 | 220 ft | 186 kts | 63° |
| 2026-04-19 16:34 | 43.38888 | -8.37960 | 1450 ft | 123 kts | 137° |
| 2026-04-19 16:34 | 43.37943 | -8.37412 | 1208 ft | 170 kts | 164° |
| 2026-04-19 16:34 | 43.36929 | -8.36485 | 1250 ft | 179 kts | 148° |
| 2026-04-19 16:34 | 43.35729 | -8.35930 | 1238 ft | 187 kts | 170° |
| 2026-04-19 16:35 | 43.34459 | -8.35452 | 1229 ft | 192 kts | 160° |
| 2026-04-19 16:35 | 43.33252 | -8.34755 | 1329 ft | 190 kts | 156° |
| 2026-04-19 16:35 | 43.32286 | -8.34973 | 1574 ft | 127 kts | 263° |
| 2026-04-19 16:35 | 43.32081 | -8.35883 | 1178 ft | 110 kts | 232° |
| 2026-04-19 16:36 | 43.31426 | -8.36704 | 555 ft | 123 kts | 218° |
| 2026-04-19 16:36 | 43.30784 | -8.37250 | 353 ft | 96 kts | 212° |
| 2026-04-19 16:36 | 43.30251 | -8.37702 | 335 ft | 60 kts | 212° |
| 2026-04-19 16:36 | 43.29967 | -8.37922 | 338 ft | 33 kts | 215° |
| 2026-04-19 16:37 | 43.30057 | -8.38070 | 336 ft | 44 kts | 7° |
| 2026-04-19 16:37 | 43.30258 | -8.37957 | 335 ft | 0 kts | 335° |
| 2026-04-19 16:37 | 43.30266 | -8.37964 | 335 ft | 0 kts | 282° |
| 2026-04-19 16:37 | 43.30266 | -8.37963 | 335 ft | 0 kts | 282° |
| 2026-04-19 16:38 | 43.30266 | -8.37964 | 335 ft | 0 kts | 282° |
| 2026-04-19 16:38 | 43.30266 | -8.37963 | 335 ft | 0 kts | 282° |
| 2026-04-19 16:40 | 43.30261 | -8.37854 | 335 ft | 34 kts | 110° |
| 2026-04-19 16:40 | 43.30032 | -8.37861 | 336 ft | 62 kts | 209° |
| 2026-04-19 16:40 | 43.29543 | -8.38245 | 449 ft | 96 kts | 215° |
| 2026-04-19 16:41 | 43.28885 | -8.38809 | 612 ft | 121 kts | 221° |
| 2026-04-19 16:41 | 43.28077 | -8.39113 | 793 ft | 139 kts | 140° |
| 2026-04-19 16:41 | 43.27560 | -8.37885 | 739 ft | 162 kts | 154° |
| 2026-04-19 16:41 | 43.26703 | -8.38582 | 1114 ft | 161 kts | 229° |
| 2026-04-19 16:42 | 43.25974 | -8.39773 | 1271 ft | 165 kts | 248° |
| 2026-04-19 16:42 | 43.26306 | -8.41156 | 1117 ft | 171 kts | 336° |
| 2026-04-19 16:42 | 43.27489 | -8.41176 | 943 ft | 177 kts | 30° |
| 2026-04-19 16:42 | 43.28134 | -8.39822 | 849 ft | 157 kts | 56° |
| 2026-04-19 16:43 | 43.28661 | -8.39027 | 606 ft | 89 kts | 35° |
| 2026-04-19 16:43 | 43.29130 | -8.38599 | 374 ft | 75 kts | 27° |
| 2026-04-19 16:43 | 43.29543 | -8.38259 | 345 ft | 59 kts | 20° |
| 2026-04-19 16:43 | 43.29859 | -8.38006 | 337 ft | 47 kts | 16° |
| 2026-04-19 16:44 | 43.30118 | -8.38047 | 334 ft | 34 kts | 22° |
| 2026-04-19 16:44 | 43.30300 | -8.37924 | 334 ft | 11 kts | 28° |
| 2026-04-19 16:44 | 43.30303 | -8.37921 | 335 ft | 0 kts | 29° |